sensor_id;sensor_type;location;lat;lon;timestamp;pressure;altitude;pressure_sealevel;temperature;humidity
8573;BME280;4324;42.012;24.872;2023-06-22T00:01:19;99128.25;;;24.12;57.09
8573;BME280;4324;42.012;24.872;2023-06-22T00:03:47;99135.84;;;24.15;56.87
8573;BME280;4324;42.012;24.872;2023-06-22T00:06:14;99129.31;;;24.11;56.89
8573;BME280;4324;42.012;24.872;2023-06-22T00:08:41;99132.56;;;24.13;57.04
8573;BME280;4324;42.012;24.872;2023-06-22T00:11:08;99114.34;;;24.04;56.71
8573;BME280;4324;42.012;24.872;2023-06-22T00:13:35;99126.84;;;24.10;57.17
8573;BME280;4324;42.012;24.872;2023-06-22T00:16:04;99134.72;;;24.11;56.99
8573;BME280;4324;42.012;24.872;2023-06-22T00:18:31;99145.78;;;24.10;57.05
8573;BME280;4324;42.012;24.872;2023-06-22T00:20:59;99134.91;;;24.05;57.07
8573;BME280;4324;42.012;24.872;2023-06-22T00:23:27;99139.25;;;24.06;57.49
8573;BME280;4324;42.012;24.872;2023-06-22T00:25:53;99140.56;;;24.03;57.21
8573;BME280;4324;42.012;24.872;2023-06-22T00:28:20;99150.56;;;24.03;57.05
8573;BME280;4324;42.012;24.872;2023-06-22T00:30:48;99142.16;;;23.99;57.56
8573;BME280;4324;42.012;24.872;2023-06-22T00:33:17;99127.41;;;23.90;57.50
8573;BME280;4324;42.012;24.872;2023-06-22T00:35:43;99154.28;;;23.97;57.66
8573;BME280;4324;42.012;24.872;2023-06-22T00:38:11;99158.28;;;23.94;57.54
8573;BME280;4324;42.012;24.872;2023-06-22T00:40:38;99150.88;;;23.84;57.63
8573;BME280;4324;42.012;24.872;2023-06-22T00:43:05;99141.03;;;23.78;57.77
8573;BME280;4324;42.012;24.872;2023-06-22T00:45:32;99141.59;;;23.80;57.67
8573;BME280;4324;42.012;24.872;2023-06-22T00:48:00;99145.13;;;23.81;57.99
8573;BME280;4324;42.012;24.872;2023-06-22T00:50:30;99148.41;;;23.83;58.18
8573;BME280;4324;42.012;24.872;2023-06-22T00:53:00;99151.84;;;23.78;58.16
8573;BME280;4324;42.012;24.872;2023-06-22T00:55:28;99140.97;;;23.73;58.26
8573;BME280;4324;42.012;24.872;2023-06-22T00:57:55;99154.78;;;23.77;58.48
8573;BME280;4324;42.012;24.872;2023-06-22T01:00:23;99155.63;;;23.77;58.40
8573;BME280;4324;42.012;24.872;2023-06-22T01:02:51;99129.66;;;23.59;58.29
8573;BME280;4324;42.012;24.872;2023-06-22T01:05:20;99157.44;;;23.72;58.63
8573;BME280;4324;42.012;24.872;2023-06-22T01:08:08;99143.34;;;23.70;58.64
8573;BME280;4324;42.012;24.872;2023-06-22T01:10:43;99145.94;;;23.64;58.60
8573;BME280;4324;42.012;24.872;2023-06-22T01:13:18;99157.81;;;23.63;58.63
8573;BME280;4324;42.012;24.872;2023-06-22T01:15:52;99127.28;;;23.46;58.63
8573;BME280;4324;42.012;24.872;2023-06-22T01:18:20;99145.88;;;23.59;58.75
8573;BME280;4324;42.012;24.872;2023-06-22T01:20:52;99124.16;;;23.54;58.90
8573;BME280;4324;42.012;24.872;2023-06-22T01:23:27;99133.44;;;23.58;58.91
8573;BME280;4324;42.012;24.872;2023-06-22T01:26:02;99106.41;;;23.41;59.18
8573;BME280;4324;42.012;24.872;2023-06-22T01:28:45;99147.19;;;23.57;58.97
8573;BME280;4324;42.012;24.872;2023-06-22T01:31:15;99128.41;;;23.50;58.88
8573;BME280;4324;42.012;24.872;2023-06-22T01:33:46;99127.28;;;23.46;59.23
8573;BME280;4324;42.012;24.872;2023-06-22T01:36:16;99127.59;;;23.50;58.85
8573;BME280;4324;42.012;24.872;2023-06-22T01:38:44;99122.38;;;23.43;58.93
8573;BME280;4324;42.012;24.872;2023-06-22T01:41:12;99135.97;;;23.48;59.03
8573;BME280;4324;42.012;24.872;2023-06-22T01:43:40;99136.47;;;23.45;59.34
8573;BME280;4324;42.012;24.872;2023-06-22T01:46:08;99129.91;;;23.41;59.24
8573;BME280;4324;42.012;24.872;2023-06-22T01:48:36;99143.97;;;23.43;59.22
8573;BME280;4324;42.012;24.872;2023-06-22T01:51:03;99132.03;;;23.39;59.58
8573;BME280;4324;42.012;24.872;2023-06-22T01:53:30;99135.81;;;23.38;59.38
8573;BME280;4324;42.012;24.872;2023-06-22T01:55:57;99139.09;;;23.40;59.70
8573;BME280;4324;42.012;24.872;2023-06-22T01:58:26;99145.31;;;23.40;59.59
8573;BME280;4324;42.012;24.872;2023-06-22T02:00:59;99135.22;;;23.36;59.91
8573;BME280;4324;42.012;24.872;2023-06-22T02:03:33;99141.22;;;23.38;59.77
8573;BME280;4324;42.012;24.872;2023-06-22T02:06:04;99145.63;;;23.44;59.65
8573;BME280;4324;42.012;24.872;2023-06-22T02:08:45;99139.09;;;23.40;59.79
8573;BME280;4324;42.012;24.872;2023-06-22T02:11:15;99144.81;;;23.43;59.84
8573;BME280;4324;42.012;24.872;2023-06-22T02:13:44;99101.53;;;23.22;59.59
8573;BME280;4324;42.012;24.872;2023-06-22T02:16:12;99143.97;;;23.43;59.78
8573;BME280;4324;42.012;24.872;2023-06-22T02:18:46;99148.25;;;23.39;59.84
8573;BME280;4324;42.012;24.872;2023-06-22T02:21:13;99156.59;;;23.37;59.81
8573;BME280;4324;42.012;24.872;2023-06-22T02:23:39;99155.94;;;23.30;59.69
8573;BME280;4324;42.012;24.872;2023-06-22T02:26:06;99146.94;;;23.25;60.13
8573;BME280;4324;42.012;24.872;2023-06-22T02:28:33;99157.06;;;23.17;60.23
8573;BME280;4324;42.012;24.872;2023-06-22T02:31:00;99150.44;;;23.08;60.40
8573;BME280;4324;42.012;24.872;2023-06-22T02:33:27;99123.56;;;22.85;60.92
8573;BME280;4324;42.012;24.872;2023-06-22T02:35:55;99156.34;;;23.05;60.75
8573;BME280;4324;42.012;24.872;2023-06-22T02:38:22;99143.50;;;22.96;60.59
8573;BME280;4324;42.012;24.872;2023-06-22T02:40:50;99158.56;;;23.08;60.79
8573;BME280;4324;42.012;24.872;2023-06-22T02:43:16;99153.63;;;23.05;60.92
8573;BME280;4324;42.012;24.872;2023-06-22T02:45:43;99156.59;;;23.04;60.92
8573;BME280;4324;42.012;24.872;2023-06-22T02:48:10;99164.44;;;23.05;60.73
8573;BME280;4324;42.012;24.872;2023-06-22T02:50:37;99164.69;;;23.04;60.82
8573;BME280;4324;42.012;24.872;2023-06-22T02:53:05;99166.56;;;23.03;60.90
8573;BME280;4324;42.012;24.872;2023-06-22T02:55:33;99157.88;;;23.01;60.76
8573;BME280;4324;42.012;24.872;2023-06-22T02:57:59;99156.25;;;23.00;60.91
8573;BME280;4324;42.012;24.872;2023-06-22T03:00:28;99156.25;;;23.00;60.95
8573;BME280;4324;42.012;24.872;2023-06-22T03:02:56;99156.72;;;22.97;61.11
8573;BME280;4324;42.012;24.872;2023-06-22T03:05:24;99155.09;;;22.96;61.31
8573;BME280;4324;42.012;24.872;2023-06-22T03:07:51;99162.13;;;22.97;61.47
8573;BME280;4324;42.012;24.872;2023-06-22T03:10:19;99153.44;;;22.95;61.46
8573;BME280;4324;42.012;24.872;2023-06-22T03:12:46;99168.69;;;23.01;61.29
8573;BME280;4324;42.012;24.872;2023-06-22T03:15:13;99180.06;;;23.03;61.18
8573;BME280;4324;42.012;24.872;2023-06-22T03:17:40;99178.19;;;23.04;61.40
8573;BME280;4324;42.012;24.872;2023-06-22T03:20:08;99173.84;;;23.03;61.03
8573;BME280;4324;42.012;24.872;2023-06-22T03:22:37;99165.44;;;22.99;61.23
8573;BME280;4324;42.012;24.872;2023-06-22T03:25:05;99176.31;;;23.04;60.94
8573;BME280;4324;42.012;24.872;2023-06-22T03:27:36;99187.28;;;23.14;61.16
8573;BME280;4324;42.012;24.872;2023-06-22T03:30:04;99178.03;;;23.10;61.35
8573;BME280;4324;42.012;24.872;2023-06-22T03:32:31;99193.94;;;23.24;61.43
8573;BME280;4324;42.012;24.872;2023-06-22T03:34:58;99192.97;;;23.30;60.89
8573;BME280;4324;42.012;24.872;2023-06-22T03:37:25;99192.47;;;23.33;60.92
8573;BME280;4324;42.012;24.872;2023-06-22T03:39:52;99189.78;;;23.33;60.47
8573;BME280;4324;42.012;24.872;2023-06-22T03:42:19;99195.84;;;23.40;60.44
8573;BME280;4324;42.012;24.872;2023-06-22T03:44:47;99191.66;;;23.49;60.52
8573;BME280;4324;42.012;24.872;2023-06-22T03:47:14;99182.41;;;23.45;60.34
8573;BME280;4324;42.012;24.872;2023-06-22T03:49:41;99189.53;;;23.51;60.49
8573;BME280;4324;42.012;24.872;2023-06-22T03:52:08;99194.28;;;23.61;60.29
8573;BME280;4324;42.012;24.872;2023-06-22T03:54:36;99186.03;;;23.67;60.19
8573;BME280;4324;42.012;24.872;2023-06-22T03:57:04;99177.44;;;23.71;59.98
8573;BME280;4324;42.012;24.872;2023-06-22T03:59:30;99180.19;;;23.76;59.96
8573;BME280;4324;42.012;24.872;2023-06-22T04:01:59;99174.63;;;23.82;59.56
8573;BME280;4324;42.012;24.872;2023-06-22T04:04:26;99190.75;;;23.94;59.70
8573;BME280;4324;42.012;24.872;2023-06-22T04:06:53;99189.16;;;23.98;59.48
8573;BME280;4324;42.012;24.872;2023-06-22T04:09:20;99160.84;;;23.84;59.10
8573;BME280;4324;42.012;24.872;2023-06-22T04:11:47;99196.03;;;24.06;59.43
8573;BME280;4324;42.012;24.872;2023-06-22T04:14:14;99188.84;;;24.11;59.13
8573;BME280;4324;42.012;24.872;2023-06-22T04:16:41;99187.75;;;24.12;59.09
8573;BME280;4324;42.012;24.872;2023-06-22T04:19:09;99170.88;;;24.05;59.38
8573;BME280;4324;42.012;24.872;2023-06-22T04:21:41;99174.22;;;24.12;59.32
8573;BME280;4324;42.012;24.872;2023-06-22T04:24:08;99187.31;;;24.21;59.13
8573;BME280;4324;42.012;24.872;2023-06-22T04:26:35;99185.81;;;24.30;58.96
8573;BME280;4324;42.012;24.872;2023-06-22T04:29:03;99200.56;;;24.39;58.58
8573;BME280;4324;42.012;24.872;2023-06-22T04:31:31;99184.97;;;24.46;58.85
8573;BME280;4324;42.012;24.872;2023-06-22T04:34:03;99161.09;;;24.43;58.66
8573;BME280;4324;42.012;24.872;2023-06-22T04:36:35;99195.09;;;24.78;58.45
8573;BME280;4324;42.012;24.872;2023-06-22T04:39:06;99194.69;;;24.91;58.04
8573;BME280;4324;42.012;24.872;2023-06-22T04:41:35;99192.84;;;24.97;57.93
8573;BME280;4324;42.012;24.872;2023-06-22T04:44:08;99202.94;;;25.06;57.61
8573;BME280;4324;42.012;24.872;2023-06-22T04:46:36;99194.94;;;25.12;57.74
8573;BME280;4324;42.012;24.872;2023-06-22T04:49:05;99198.47;;;25.17;57.67
8573;BME280;4324;42.012;24.872;2023-06-22T04:51:38;99186.13;;;25.26;57.42
8573;BME280;4324;42.012;24.872;2023-06-22T04:54:05;99183.19;;;25.33;57.00
8573;BME280;4324;42.012;24.872;2023-06-22T04:56:32;99196.38;;;25.51;57.29
8573;BME280;4324;42.012;24.872;2023-06-22T04:58:59;99193.16;;;25.59;57.03
8573;BME280;4324;42.012;24.872;2023-06-22T05:01:26;99194.81;;;25.66;56.75
8573;BME280;4324;42.012;24.872;2023-06-22T05:03:52;99186.47;;;25.72;56.93
8573;BME280;4324;42.012;24.872;2023-06-22T05:06:21;99196.31;;;25.78;57.47
8573;BME280;4324;42.012;24.872;2023-06-22T05:08:51;99193.94;;;25.87;57.69
8573;BME280;4324;42.012;24.872;2023-06-22T05:11:18;99196.63;;;25.87;57.79
8573;BME280;4324;42.012;24.872;2023-06-22T05:13:45;99195.53;;;25.83;57.79
8573;BME280;4324;42.012;24.872;2023-06-22T05:16:12;99195.56;;;25.88;58.25
8573;BME280;4324;42.012;24.872;2023-06-22T05:18:39;99202.66;;;25.94;58.10
8573;BME280;4324;42.012;24.872;2023-06-22T05:21:07;99196.72;;;26.02;58.12
8573;BME280;4324;42.012;24.872;2023-06-22T05:23:34;99182.91;;;26.04;58.18
8573;BME280;4324;42.012;24.872;2023-06-22T05:26:02;99199.03;;;26.26;57.65
8573;BME280;4324;42.012;24.872;2023-06-22T05:28:29;99183.34;;;26.33;56.85
8573;BME280;4324;42.012;24.872;2023-06-22T05:30:56;99192.41;;;26.54;56.20
8573;BME280;4324;42.012;24.872;2023-06-22T05:33:22;99184.56;;;26.68;55.85
8573;BME280;4324;42.012;24.872;2023-06-22T05:35:50;99179.72;;;26.80;55.30
8573;BME280;4324;42.012;24.872;2023-06-22T05:38:16;99173.50;;;26.90;54.86
8573;BME280;4324;42.012;24.872;2023-06-22T05:40:43;99172.13;;;27.02;54.44
8573;BME280;4324;42.012;24.872;2023-06-22T05:43:12;99168.06;;;27.10;54.11
8573;BME280;4324;42.012;24.872;2023-06-22T05:45:38;99177.09;;;27.16;53.84
8573;BME280;4324;42.012;24.872;2023-06-22T05:48:05;99160.22;;;27.14;53.50
8573;BME280;4324;42.012;24.872;2023-06-22T05:50:32;99166.22;;;27.21;52.91
8573;BME280;4324;42.012;24.872;2023-06-22T05:52:59;99179.00;;;27.36;53.06
8573;BME280;4324;42.012;24.872;2023-06-22T05:55:26;99178.72;;;27.47;53.04
8573;BME280;4324;42.012;24.872;2023-06-22T05:57:53;99179.81;;;27.62;52.81
8573;BME280;4324;42.012;24.872;2023-06-22T06:00:21;99179.78;;;27.72;53.01
8573;BME280;4324;42.012;24.872;2023-06-22T06:02:49;99186.34;;;27.61;53.62
8573;BME280;4324;42.012;24.872;2023-06-22T06:05:16;99188.50;;;27.43;54.99
8573;BME280;4324;42.012;24.872;2023-06-22T06:07:45;99205.91;;;27.32;55.74
8573;BME280;4324;42.012;24.872;2023-06-22T06:10:12;99196.66;;;27.18;56.49
8573;BME280;4324;42.012;24.872;2023-06-22T06:12:39;99198.28;;;27.14;56.90
8573;BME280;4324;42.012;24.872;2023-06-22T06:15:07;99191.22;;;27.13;56.86
8573;BME280;4324;42.012;24.872;2023-06-22T06:17:35;99197.22;;;27.20;57.31
8573;BME280;4324;42.012;24.872;2023-06-22T06:20:02;99202.63;;;27.25;57.28
8573;BME280;4324;42.012;24.872;2023-06-22T06:22:32;99196.13;;;27.31;57.22
8573;BME280;4324;42.012;24.872;2023-06-22T06:24:59;99194.50;;;27.35;57.37
8573;BME280;4324;42.012;24.872;2023-06-22T06:27:26;99190.44;;;27.38;57.67
8573;BME280;4324;42.012;24.872;2023-06-22T06:29:56;99183.88;;;27.44;57.31
8573;BME280;4324;42.012;24.872;2023-06-22T06:32:22;99197.22;;;27.56;57.33
8573;BME280;4324;42.012;24.872;2023-06-22T06:34:51;99185.25;;;27.62;57.11
8573;BME280;4324;42.012;24.872;2023-06-22T06:37:18;99193.94;;;27.74;56.79
8573;BME280;4324;42.012;24.872;2023-06-22T06:39:45;99171.09;;;27.80;56.19
8573;BME280;4324;42.012;24.872;2023-06-22T06:42:11;99177.06;;;27.97;55.77
8573;BME280;4324;42.012;24.872;2023-06-22T06:44:38;99178.09;;;28.07;55.05
8573;BME280;4324;42.012;24.872;2023-06-22T06:47:05;99193.03;;;28.25;54.70
8573;BME280;4324;42.012;24.872;2023-06-22T06:49:33;99188.38;;;28.35;54.25
8573;BME280;4324;42.012;24.872;2023-06-22T06:52:01;99174.75;;;28.40;54.03
8573;BME280;4324;42.012;24.872;2023-06-22T06:54:28;99187.19;;;28.62;53.40
8573;BME280;4324;42.012;24.872;2023-06-22T06:56:55;99189.31;;;28.70;53.51
8573;BME280;4324;42.012;24.872;2023-06-22T06:59:22;99189.03;;;28.77;53.41
8573;BME280;4324;42.012;24.872;2023-06-22T07:01:49;99189.81;;;28.77;53.30
8573;BME280;4324;42.012;24.872;2023-06-22T07:04:16;99181.34;;;28.84;53.49
8573;BME280;4324;42.012;24.872;2023-06-22T07:06:44;99188.38;;;29.00;53.45
8573;BME280;4324;42.012;24.872;2023-06-22T07:09:12;99180.97;;;29.06;52.96
8573;BME280;4324;42.012;24.872;2023-06-22T07:11:39;99180.34;;;29.19;53.02
8573;BME280;4324;42.012;24.872;2023-06-22T07:14:06;99178.00;;;29.36;52.23
8573;BME280;4324;42.012;24.872;2023-06-22T07:16:33;99180.72;;;29.41;52.45
8573;BME280;4324;42.012;24.872;2023-06-22T07:19:00;99163.31;;;29.32;52.47
8573;BME280;4324;42.012;24.872;2023-06-22T07:21:27;99175.16;;;29.52;52.03
8573;BME280;4324;42.012;24.872;2023-06-22T07:23:54;99174.28;;;29.61;52.15
8573;BME280;4324;42.012;24.872;2023-06-22T07:26:23;99189.41;;;29.78;52.15
8573;BME280;4324;42.012;24.872;2023-06-22T07:28:50;99180.16;;;29.74;52.04
8573;BME280;4324;42.012;24.872;2023-06-22T07:31:16;99178.84;;;29.71;52.18
8573;BME280;4324;42.012;24.872;2023-06-22T07:33:43;99192.97;;;29.78;52.08
8573;BME280;4324;42.012;24.872;2023-06-22T07:36:10;99190.00;;;29.75;52.23
8573;BME280;4324;42.012;24.872;2023-06-22T07:38:37;99187.50;;;29.78;52.29
8573;BME280;4324;42.012;24.872;2023-06-22T07:41:04;99198.28;;;29.88;52.35
8573;BME280;4324;42.012;24.872;2023-06-22T07:43:33;99186.22;;;29.95;51.77
8573;BME280;4324;42.012;24.872;2023-06-22T07:46:02;99192.88;;;30.12;51.70
8573;BME280;4324;42.012;24.872;2023-06-22T07:48:29;99195.22;;;30.24;51.40
8573;BME280;4324;42.012;24.872;2023-06-22T07:50:56;99192.41;;;30.29;50.94
8573;BME280;4324;42.012;24.872;2023-06-22T07:53:23;99183.66;;;30.32;50.59
8573;BME280;4324;42.012;24.872;2023-06-22T07:55:50;99184.41;;;30.38;50.94
8573;BME280;4324;42.012;24.872;2023-06-22T07:58:17;99188.91;;;30.48;50.49
8573;BME280;4324;42.012;24.872;2023-06-22T08:00:47;99162.03;;;30.36;50.44
8573;BME280;4324;42.012;24.872;2023-06-22T08:03:14;99186.94;;;30.53;49.86
8573;BME280;4324;42.012;24.872;2023-06-22T08:05:41;99176.69;;;30.64;49.43
8573;BME280;4324;42.012;24.872;2023-06-22T08:08:08;99173.88;;;30.69;48.92
8573;BME280;4324;42.012;24.872;2023-06-22T08:10:35;99170.03;;;30.70;48.69
8573;BME280;4324;42.012;24.872;2023-06-22T08:13:02;99180.38;;;30.73;48.13
8573;BME280;4324;42.012;24.872;2023-06-22T08:15:29;99169.94;;;30.80;47.28
8573;BME280;4324;42.012;24.872;2023-06-22T08:17:57;99185.09;;;30.92;47.03
8573;BME280;4324;42.012;24.872;2023-06-22T08:20:25;99182.19;;;31.02;46.37
8573;BME280;4324;42.012;24.872;2023-06-22T08:22:53;99171.69;;;31.09;45.68
8573;BME280;4324;42.012;24.872;2023-06-22T08:25:20;99170.97;;;31.22;45.67
8573;BME280;4324;42.012;24.872;2023-06-22T08:27:47;99167.19;;;31.37;45.36
8573;BME280;4324;42.012;24.872;2023-06-22T08:30:16;99174.31;;;31.52;44.95
8573;BME280;4324;42.012;24.872;2023-06-22T08:32:44;99167.53;;;31.49;44.35
8573;BME280;4324;42.012;24.872;2023-06-22T08:35:12;99170.22;;;31.36;43.91
8573;BME280;4324;42.012;24.872;2023-06-22T08:37:39;99168.72;;;31.24;43.79
8573;BME280;4324;42.012;24.872;2023-06-22T08:40:07;99162.44;;;31.24;43.62
8573;BME280;4324;42.012;24.872;2023-06-22T08:42:35;99150.69;;;31.23;43.84
8573;BME280;4324;42.012;24.872;2023-06-22T08:45:02;99168.50;;;31.40;43.20
8573;BME280;4324;42.012;24.872;2023-06-22T08:47:29;99167.91;;;31.43;43.14
8573;BME280;4324;42.012;24.872;2023-06-22T08:49:56;99163.34;;;31.52;42.33
8573;BME280;4324;42.012;24.872;2023-06-22T08:52:24;99154.47;;;31.60;42.66
8573;BME280;4324;42.012;24.872;2023-06-22T08:54:51;99151.44;;;31.75;41.79
8573;BME280;4324;42.012;24.872;2023-06-22T08:57:18;99124.69;;;31.72;42.03
8573;BME280;4324;42.012;24.872;2023-06-22T08:59:45;99151.00;;;32.01;41.60
8573;BME280;4324;42.012;24.872;2023-06-22T09:02:12;99163.38;;;32.12;40.58
8573;BME280;4324;42.012;24.872;2023-06-22T09:04:39;99148.44;;;32.18;39.82
8573;BME280;4324;42.012;24.872;2023-06-22T09:07:06;99152.50;;;32.35;39.81
8573;BME280;4324;42.012;24.872;2023-06-22T09:09:35;99152.63;;;32.43;39.28
8573;BME280;4324;42.012;24.872;2023-06-22T09:12:02;99145.31;;;32.52;39.44
8573;BME280;4324;42.012;24.872;2023-06-22T09:14:29;99148.44;;;32.60;39.16
8573;BME280;4324;42.012;24.872;2023-06-22T09:16:56;99153.28;;;32.63;38.89
8573;BME280;4324;42.012;24.872;2023-06-22T09:19:22;99142.75;;;32.56;38.57
8573;BME280;4324;42.012;24.872;2023-06-22T09:21:50;99146.91;;;32.67;38.62
8573;BME280;4324;42.012;24.872;2023-06-22T09:24:17;99140.16;;;32.73;38.58
8573;BME280;4324;42.012;24.872;2023-06-22T09:26:45;99135.38;;;32.79;38.23
8573;BME280;4324;42.012;24.872;2023-06-22T09:29:12;99150.09;;;32.97;38.22
8573;BME280;4324;42.012;24.872;2023-06-22T09:31:39;99140.13;;;33.01;38.11
8573;BME280;4324;42.012;24.872;2023-06-22T09:34:06;99150.09;;;33.19;38.11
8573;BME280;4324;42.012;24.872;2023-06-22T09:36:33;99147.22;;;33.24;37.55
8573;BME280;4324;42.012;24.872;2023-06-22T09:39:00;99148.38;;;33.32;37.60
8573;BME280;4324;42.012;24.872;2023-06-22T09:41:31;99139.03;;;33.56;37.10
8573;BME280;4324;42.012;24.872;2023-06-22T09:43:59;99144.25;;;33.66;36.97
8573;BME280;4324;42.012;24.872;2023-06-22T09:46:26;99129.91;;;33.69;36.51
8573;BME280;4324;42.012;24.872;2023-06-22T09:48:54;99132.97;;;33.67;36.63
8573;BME280;4324;42.012;24.872;2023-06-22T09:51:21;99140.06;;;33.68;36.62
8573;BME280;4324;42.012;24.872;2023-06-22T09:53:49;99136.47;;;33.59;36.38
8573;BME280;4324;42.012;24.872;2023-06-22T09:56:16;99139.84;;;33.56;36.29
8573;BME280;4324;42.012;24.872;2023-06-22T09:58:43;99119.47;;;33.48;35.85
8573;BME280;4324;42.012;24.872;2023-06-22T10:01:13;99133.09;;;33.62;36.22
8573;BME280;4324;42.012;24.872;2023-06-22T10:03:41;99130.25;;;33.76;35.81
8573;BME280;4324;42.012;24.872;2023-06-22T10:06:08;99133.53;;;33.87;35.29
8573;BME280;4324;42.012;24.872;2023-06-22T10:08:35;99130.06;;;33.72;35.19
8573;BME280;4324;42.012;24.872;2023-06-22T10:11:02;99137.81;;;33.70;35.13
8573;BME280;4324;42.012;24.872;2023-06-22T10:13:29;99124.44;;;33.78;35.19
8573;BME280;4324;42.012;24.872;2023-06-22T10:15:56;99129.97;;;33.86;35.11
8573;BME280;4324;42.012;24.872;2023-06-22T10:18:25;99119.81;;;33.95;34.72
8573;BME280;4324;42.012;24.872;2023-06-22T10:20:52;99123.94;;;34.07;34.66
8573;BME280;4324;42.012;24.872;2023-06-22T10:23:19;99117.63;;;34.06;33.98
8573;BME280;4324;42.012;24.872;2023-06-22T10:25:47;99127.34;;;34.12;33.99
8573;BME280;4324;42.012;24.872;2023-06-22T10:28:14;99117.16;;;34.13;33.67
8573;BME280;4324;42.012;24.872;2023-06-22T10:30:42;99122.66;;;34.22;33.68
8573;BME280;4324;42.012;24.872;2023-06-22T10:33:10;99097.47;;;34.19;33.95
8573;BME280;4324;42.012;24.872;2023-06-22T10:35:38;99118.84;;;34.40;34.00
8573;BME280;4324;42.012;24.872;2023-06-22T10:38:06;99119.00;;;34.43;33.55
8573;BME280;4324;42.012;24.872;2023-06-22T10:40:33;99104.41;;;34.26;33.20
8573;BME280;4324;42.012;24.872;2023-06-22T10:43:00;99109.75;;;34.22;32.97
8573;BME280;4324;42.012;24.872;2023-06-22T10:45:27;99099.72;;;34.17;33.02
8573;BME280;4324;42.012;24.872;2023-06-22T10:47:54;99092.78;;;34.20;32.95
8573;BME280;4324;42.012;24.872;2023-06-22T10:50:21;99081.97;;;34.32;32.76
8573;BME280;4324;42.012;24.872;2023-06-22T10:52:50;99097.66;;;34.49;32.54
8573;BME280;4324;42.012;24.872;2023-06-22T10:55:18;99090.44;;;34.53;32.72
8573;BME280;4324;42.012;24.872;2023-06-22T10:57:45;99083.94;;;34.49;32.72
8573;BME280;4324;42.012;24.872;2023-06-22T11:00:14;99078.91;;;34.42;32.36
8573;BME280;4324;42.012;24.872;2023-06-22T11:02:42;99066.09;;;34.29;32.39
8573;BME280;4324;42.012;24.872;2023-06-22T11:05:08;99067.56;;;34.44;32.46
8573;BME280;4324;42.012;24.872;2023-06-22T11:07:37;99073.44;;;34.60;32.25
8573;BME280;4324;42.012;24.872;2023-06-22T11:10:07;99074.91;;;34.75;32.40
8573;BME280;4324;42.012;24.872;2023-06-22T11:12:34;99074.72;;;34.80;31.93
8573;BME280;4324;42.012;24.872;2023-06-22T11:15:01;99070.84;;;34.81;31.72
8573;BME280;4324;42.012;24.872;2023-06-22T11:17:28;99059.69;;;34.86;32.13
8573;BME280;4324;42.012;24.872;2023-06-22T11:19:55;99061.25;;;35.22;31.94
8573;BME280;4324;42.012;24.872;2023-06-22T11:22:21;99070.41;;;35.43;31.82
8573;BME280;4324;42.012;24.872;2023-06-22T11:24:48;99068.75;;;35.59;31.17
8573;BME280;4324;42.012;24.872;2023-06-22T11:27:17;99062.75;;;35.49;31.15
8573;BME280;4324;42.012;24.872;2023-06-22T11:29:43;99046.66;;;35.21;31.47
8573;BME280;4324;42.012;24.872;2023-06-22T11:32:10;99072.75;;;35.24;31.91
8573;BME280;4324;42.012;24.872;2023-06-22T11:34:37;99064.78;;;35.22;31.98
8573;BME280;4324;42.012;24.872;2023-06-22T11:37:05;99064.50;;;35.15;31.44
8573;BME280;4324;42.012;24.872;2023-06-22T11:39:32;99061.59;;;35.03;31.70
8573;BME280;4324;42.012;24.872;2023-06-22T11:41:59;99061.44;;;35.08;31.21
8573;BME280;4324;42.012;24.872;2023-06-22T11:44:27;99057.06;;;35.15;31.26
8573;BME280;4324;42.012;24.872;2023-06-22T11:46:55;99065.31;;;35.15;30.80
8573;BME280;4324;42.012;24.872;2023-06-22T11:49:22;99070.50;;;35.08;31.19
8573;BME280;4324;42.012;24.872;2023-06-22T11:51:49;99074.56;;;34.94;31.54
8573;BME280;4324;42.012;24.872;2023-06-22T11:54:16;99066.78;;;34.87;31.57
8573;BME280;4324;42.012;24.872;2023-06-22T11:56:43;99068.09;;;34.81;31.80
8573;BME280;4324;42.012;24.872;2023-06-22T11:59:10;99065.50;;;34.76;31.69
8573;BME280;4324;42.012;24.872;2023-06-22T12:01:38;99066.16;;;34.90;32.07
8573;BME280;4324;42.012;24.872;2023-06-22T12:04:05;99067.28;;;35.06;31.73
8573;BME280;4324;42.012;24.872;2023-06-22T12:06:32;99049.47;;;35.12;31.80
8573;BME280;4324;42.012;24.872;2023-06-22T12:09:00;99060.28;;;35.18;31.63
8573;BME280;4324;42.012;24.872;2023-06-22T12:11:30;99049.59;;;34.99;32.08
8573;BME280;4324;42.012;24.872;2023-06-22T12:13:56;99053.50;;;34.98;31.63
8573;BME280;4324;42.012;24.872;2023-06-22T12:16:27;99051.06;;;34.96;31.61
8573;BME280;4324;42.012;24.872;2023-06-22T12:18:55;99054.00;;;34.91;31.71
8573;BME280;4324;42.012;24.872;2023-06-22T12:21:22;99045.25;;;34.89;31.91
8573;BME280;4324;42.012;24.872;2023-06-22T12:23:49;99047.69;;;34.90;31.59
8573;BME280;4324;42.012;24.872;2023-06-22T12:26:16;99044.78;;;34.87;31.61
8573;BME280;4324;42.012;24.872;2023-06-22T12:28:43;99038.44;;;34.95;31.86
8573;BME280;4324;42.012;24.872;2023-06-22T12:31:10;99043.00;;;35.08;31.38
8573;BME280;4324;42.012;24.872;2023-06-22T12:33:37;99029.19;;;35.17;31.40
8573;BME280;4324;42.012;24.872;2023-06-22T12:36:05;99038.38;;;35.30;31.02
8573;BME280;4324;42.012;24.872;2023-06-22T12:38:32;99037.72;;;35.33;30.79
8573;BME280;4324;42.012;24.872;2023-06-22T12:40:59;99026.22;;;35.39;30.93
8573;BME280;4324;42.012;24.872;2023-06-22T12:43:26;99030.19;;;35.59;30.98
8573;BME280;4324;42.012;24.872;2023-06-22T12:45:53;99026.47;;;35.55;30.72
8573;BME280;4324;42.012;24.872;2023-06-22T12:48:22;99027.31;;;35.47;30.55
8573;BME280;4324;42.012;24.872;2023-06-22T12:50:48;99032.47;;;35.57;30.88
8573;BME280;4324;42.012;24.872;2023-06-22T12:53:16;99022.41;;;35.61;30.73
8573;BME280;4324;42.012;24.872;2023-06-22T12:55:43;99011.53;;;35.65;30.58
8573;BME280;4324;42.012;24.872;2023-06-22T12:58:10;99008.34;;;35.84;30.56
8573;BME280;4324;42.012;24.872;2023-06-22T13:00:38;99022.13;;;36.14;30.02
8573;BME280;4324;42.012;24.872;2023-06-22T13:03:05;99013.78;;;36.22;29.93
8573;BME280;4324;42.012;24.872;2023-06-22T13:05:32;99014.84;;;36.30;29.52
8573;BME280;4324;42.012;24.872;2023-06-22T13:08:00;99005.66;;;36.26;29.85
8573;BME280;4324;42.012;24.872;2023-06-22T13:10:28;99018.09;;;36.32;29.41
8573;BME280;4324;42.012;24.872;2023-06-22T13:12:55;99011.09;;;36.34;30.08